sensor_id;sensor_type;location;lat;lon;timestamp;temperature;humidity
47861;HTU21D;33620;52.340;5.984;2023-12-28T00:00:37;9.25;89.67
47861;HTU21D;33620;52.340;5.984;2023-12-28T00:03:03;9.26;89.30
47861;HTU21D;33620;52.340;5.984;2023-12-28T00:05:28;9.32;89.21
47861;HTU21D;33620;52.340;5.984;2023-12-28T00:07:54;9.35;89.02
47861;HTU21D;33620;52.340;5.984;2023-12-28T00:10:27;9.36;89.01
47861;HTU21D;33620;52.340;5.984;2023-12-28T00:12:53;9.36;88.95
47861;HTU21D;33620;52.340;5.984;2023-12-28T00:15:18;9.39;89.04
47861;HTU21D;33620;52.340;5.984;2023-12-28T00:17:44;9.42;89.22
47861;HTU21D;33620;52.340;5.984;2023-12-28T00:20:10;9.47;89.15
47861;HTU21D;33620;52.340;5.984;2023-12-28T00:22:35;9.49;89.12
47861;HTU21D;33620;52.340;5.984;2023-12-28T00:25:03;9.55;89.19
47861;HTU21D;33620;52.340;5.984;2023-12-28T00:27:28;9.55;89.42
47861;HTU21D;33620;52.340;5.984;2023-12-28T00:29:54;9.60;89.42
47861;HTU21D;33620;52.340;5.984;2023-12-28T00:32:19;9.63;89.59
47861;HTU21D;33620;52.340;5.984;2023-12-28T00:34:44;9.67;89.53
47861;HTU21D;33620;52.340;5.984;2023-12-28T00:37:10;9.75;89.41
47861;HTU21D;33620;52.340;5.984;2023-12-28T00:39:35;9.79;89.42
47861;HTU21D;33620;52.340;5.984;2023-12-28T00:42:01;9.82;89.61
47861;HTU21D;33620;52.340;5.984;2023-12-28T00:44:26;9.86;89.52
47861;HTU21D;33620;52.340;5.984;2023-12-28T00:46:51;9.90;89.63
47861;HTU21D;33620;52.340;5.984;2023-12-28T00:49:17;9.92;89.79
47861;HTU21D;33620;52.340;5.984;2023-12-28T00:51:42;9.98;89.67
47861;HTU21D;33620;52.340;5.984;2023-12-28T00:54:07;10.04;89.52
47861;HTU21D;33620;52.340;5.984;2023-12-28T00:56:33;10.04;89.79
47861;HTU21D;33620;52.340;5.984;2023-12-28T00:58:58;10.05;89.75
47861;HTU21D;33620;52.340;5.984;2023-12-28T01:01:23;10.08;89.73
47861;HTU21D;33620;52.340;5.984;2023-12-28T01:03:49;10.13;89.56
47861;HTU21D;33620;52.340;5.984;2023-12-28T01:06:14;10.15;89.47
47861;HTU21D;33620;52.340;5.984;2023-12-28T01:08:39;10.12;89.60
47861;HTU21D;33620;52.340;5.984;2023-12-28T01:11:05;10.13;89.64
47861;HTU21D;33620;52.340;5.984;2023-12-28T01:13:30;10.11;89.65
47861;HTU21D;33620;52.340;5.984;2023-12-28T01:15:56;10.13;89.60
47861;HTU21D;33620;52.340;5.984;2023-12-28T01:18:21;10.16;89.43
47861;HTU21D;33620;52.340;5.984;2023-12-28T01:20:47;10.16;89.44
47861;HTU21D;33620;52.340;5.984;2023-12-28T01:23:12;10.23;89.15
47861;HTU21D;33620;52.340;5.984;2023-12-28T01:25:38;10.24;89.28
47861;HTU21D;33620;52.340;5.984;2023-12-28T01:28:03;10.20;89.42
47861;HTU21D;33620;52.340;5.984;2023-12-28T01:30:29;10.22;89.38
47861;HTU21D;33620;52.340;5.984;2023-12-28T01:32:55;10.19;89.47
47861;HTU21D;33620;52.340;5.984;2023-12-28T01:35:20;10.24;89.44
47861;HTU21D;33620;52.340;5.984;2023-12-28T01:37:45;10.22;89.50
47861;HTU21D;33620;52.340;5.984;2023-12-28T01:40:11;10.19;89.63
47861;HTU21D;33620;52.340;5.984;2023-12-28T01:42:37;10.18;89.76
47861;HTU21D;33620;52.340;5.984;2023-12-28T01:45:03;10.15;89.77
47861;HTU21D;33620;52.340;5.984;2023-12-28T01:47:29;10.12;89.72
47861;HTU21D;33620;52.340;5.984;2023-12-28T01:49:55;10.10;89.76
47861;HTU21D;33620;52.340;5.984;2023-12-28T01:52:21;10.08;89.84
47861;HTU21D;33620;52.340;5.984;2023-12-28T01:54:47;10.06;89.86
47861;HTU21D;33620;52.340;5.984;2023-12-28T01:57:13;10.03;89.96
47861;HTU21D;33620;52.340;5.984;2023-12-28T01:59:40;10.00;90.08
47861;HTU21D;33620;52.340;5.984;2023-12-28T02:02:06;9.98;90.12
47861;HTU21D;33620;52.340;5.984;2023-12-28T02:04:32;10.00;89.94
47861;HTU21D;33620;52.340;5.984;2023-12-28T02:06:59;9.98;90.05
47861;HTU21D;33620;52.340;5.984;2023-12-28T02:09:25;9.94;90.12
47861;HTU21D;33620;52.340;5.984;2023-12-28T02:11:51;9.95;90.08
47861;HTU21D;33620;52.340;5.984;2023-12-28T02:14:17;9.96;89.99
47861;HTU21D;33620;52.340;5.984;2023-12-28T02:16:50;9.96;89.94
47861;HTU21D;33620;52.340;5.984;2023-12-28T02:19:27;9.96;89.79
47861;HTU21D;33620;52.340;5.984;2023-12-28T02:21:58;9.95;90.03
47861;HTU21D;33620;52.340;5.984;2023-12-28T02:24:24;9.95;90.06
47861;HTU21D;33620;52.340;5.984;2023-12-28T02:26:49;9.94;90.10
47861;HTU21D;33620;52.340;5.984;2023-12-28T02:29:14;9.94;89.98
47861;HTU21D;33620;52.340;5.984;2023-12-28T02:31:46;9.94;90.07
47861;HTU21D;33620;52.340;5.984;2023-12-28T02:34:29;9.93;90.13
47861;HTU21D;33620;52.340;5.984;2023-12-28T02:36:58;9.91;90.20
47861;HTU21D;33620;52.340;5.984;2023-12-28T02:39:26;9.93;90.18
47861;HTU21D;33620;52.340;5.984;2023-12-28T02:41:53;9.95;90.01
47861;HTU21D;33620;52.340;5.984;2023-12-28T02:44:20;9.93;90.05
47861;HTU21D;33620;52.340;5.984;2023-12-28T02:46:46;9.91;90.09
47861;HTU21D;33620;52.340;5.984;2023-12-28T02:49:12;9.93;90.05
47861;HTU21D;33620;52.340;5.984;2023-12-28T02:51:37;9.91;89.95
47861;HTU21D;33620;52.340;5.984;2023-12-28T02:54:02;9.90;89.89
47861;HTU21D;33620;52.340;5.984;2023-12-28T02:56:28;9.92;89.77
47861;HTU21D;33620;52.340;5.984;2023-12-28T02:58:53;9.92;89.75
47861;HTU21D;33620;52.340;5.984;2023-12-28T03:01:19;9.91;89.84
47861;HTU21D;33620;52.340;5.984;2023-12-28T03:03:44;9.86;89.85
47861;HTU21D;33620;52.340;5.984;2023-12-28T03:06:09;9.88;89.71
47861;HTU21D;33620;52.340;5.984;2023-12-28T03:08:35;9.88;89.68
47861;HTU21D;33620;52.340;5.984;2023-12-28T03:11:00;9.88;89.57
47861;HTU21D;33620;52.340;5.984;2023-12-28T03:13:25;9.88;89.50
47861;HTU21D;33620;52.340;5.984;2023-12-28T03:15:51;9.93;89.20
47861;HTU21D;33620;52.340;5.984;2023-12-28T03:18:16;9.91;89.18
47861;HTU21D;33620;52.340;5.984;2023-12-28T03:20:41;9.93;89.11
47861;HTU21D;33620;52.340;5.984;2023-12-28T03:23:07;9.92;89.07
47861;HTU21D;33620;52.340;5.984;2023-12-28T03:25:32;9.95;88.67
47861;HTU21D;33620;52.340;5.984;2023-12-28T03:27:57;9.96;88.67
47861;HTU21D;33620;52.340;5.984;2023-12-28T03:30:23;9.96;88.64
47861;HTU21D;33620;52.340;5.984;2023-12-28T03:32:48;9.96;88.58
47861;HTU21D;33620;52.340;5.984;2023-12-28T03:35:14;9.97;88.60
47861;HTU21D;33620;52.340;5.984;2023-12-28T03:37:39;9.96;88.32
47861;HTU21D;33620;52.340;5.984;2023-12-28T03:40:05;10.00;88.35
47861;HTU21D;33620;52.340;5.984;2023-12-28T03:42:30;10.04;88.25
47861;HTU21D;33620;52.340;5.984;2023-12-28T03:44:56;10.08;88.15
47861;HTU21D;33620;52.340;5.984;2023-12-28T03:47:22;10.08;87.93
47861;HTU21D;33620;52.340;5.984;2023-12-28T03:49:49;10.16;87.73
47861;HTU21D;33620;52.340;5.984;2023-12-28T03:52:14;10.16;87.70
47861;HTU21D;33620;52.340;5.984;2023-12-28T03:54:40;10.20;87.63
47861;HTU21D;33620;52.340;5.984;2023-12-28T03:57:05;10.20;87.59
47861;HTU21D;33620;52.340;5.984;2023-12-28T03:59:30;10.18;87.51
47861;HTU21D;33620;52.340;5.984;2023-12-28T04:01:56;10.18;87.38
47861;HTU21D;33620;52.340;5.984;2023-12-28T04:04:21;10.21;87.07
47861;HTU21D;33620;52.340;5.984;2023-12-28T04:06:46;10.25;86.75
47861;HTU21D;33620;52.340;5.984;2023-12-28T04:09:12;10.29;86.70
47861;HTU21D;33620;52.340;5.984;2023-12-28T04:11:38;10.29;86.63
47861;HTU21D;33620;52.340;5.984;2023-12-28T04:14:03;10.36;86.34
47861;HTU21D;33620;52.340;5.984;2023-12-28T04:16:28;10.34;86.38
47861;HTU21D;33620;52.340;5.984;2023-12-28T04:18:54;10.36;86.13
47861;HTU21D;33620;52.340;5.984;2023-12-28T04:21:19;10.38;86.00
47861;HTU21D;33620;52.340;5.984;2023-12-28T04:23:44;10.36;86.12
47861;HTU21D;33620;52.340;5.984;2023-12-28T04:26:10;10.31;86.46
47861;HTU21D;33620;52.340;5.984;2023-12-28T04:28:35;10.30;86.67
47861;HTU21D;33620;52.340;5.984;2023-12-28T04:31:05;10.35;86.55
47861;HTU21D;33620;52.340;5.984;2023-12-28T04:33:30;10.33;86.44
47861;HTU21D;33620;52.340;5.984;2023-12-28T04:35:56;10.33;86.53
47861;HTU21D;33620;52.340;5.984;2023-12-28T04:38:22;10.33;86.51
47861;HTU21D;33620;52.340;5.984;2023-12-28T04:40:47;10.34;86.66
47861;HTU21D;33620;52.340;5.984;2023-12-28T04:43:12;10.36;86.71
47861;HTU21D;33620;52.340;5.984;2023-12-28T04:45:38;10.37;86.60
47861;HTU21D;33620;52.340;5.984;2023-12-28T04:48:04;10.45;85.71
47861;HTU21D;33620;52.340;5.984;2023-12-28T04:50:29;10.45;85.86
47861;HTU21D;33620;52.340;5.984;2023-12-28T04:52:55;10.46;85.72
47861;HTU21D;33620;52.340;5.984;2023-12-28T04:55:20;10.50;85.92
47861;HTU21D;33620;52.340;5.984;2023-12-28T04:57:46;10.51;86.01
47861;HTU21D;33620;52.340;5.984;2023-12-28T05:00:12;10.45;85.81
47861;HTU21D;33620;52.340;5.984;2023-12-28T05:02:37;10.55;85.71
47861;HTU21D;33620;52.340;5.984;2023-12-28T05:05:03;10.55;85.69
47861;HTU21D;33620;52.340;5.984;2023-12-28T05:07:28;10.54;85.72
47861;HTU21D;33620;52.340;5.984;2023-12-28T05:09:54;10.54;85.50
47861;HTU21D;33620;52.340;5.984;2023-12-28T05:12:19;10.52;85.37
47861;HTU21D;33620;52.340;5.984;2023-12-28T05:14:45;10.54;85.38
47861;HTU21D;33620;52.340;5.984;2023-12-28T05:17:10;10.53;85.22
47861;HTU21D;33620;52.340;5.984;2023-12-28T05:19:35;10.54;84.80
47861;HTU21D;33620;52.340;5.984;2023-12-28T05:22:01;10.59;84.87
47861;HTU21D;33620;52.340;5.984;2023-12-28T05:24:29;10.59;84.79
47861;HTU21D;33620;52.340;5.984;2023-12-28T05:26:54;10.57;84.37
47861;HTU21D;33620;52.340;5.984;2023-12-28T05:29:20;10.63;84.23
47861;HTU21D;33620;52.340;5.984;2023-12-28T05:31:45;10.65;84.43
47861;HTU21D;33620;52.340;5.984;2023-12-28T05:34:10;10.63;84.43
47861;HTU21D;33620;52.340;5.984;2023-12-28T05:36:36;10.63;84.16
47861;HTU21D;33620;52.340;5.984;2023-12-28T05:39:01;10.63;84.14
47861;HTU21D;33620;52.340;5.984;2023-12-28T05:41:27;10.66;83.88
47861;HTU21D;33620;52.340;5.984;2023-12-28T05:43:53;10.66;83.78
47861;HTU21D;33620;52.340;5.984;2023-12-28T05:46:18;10.67;83.90
47861;HTU21D;33620;52.340;5.984;2023-12-28T05:48:43;10.66;82.89
47861;HTU21D;33620;52.340;5.984;2023-12-28T05:51:09;10.74;83.03
47861;HTU21D;33620;52.340;5.984;2023-12-28T05:53:34;10.72;82.81
47861;HTU21D;33620;52.340;5.984;2023-12-28T05:56:00;10.74;82.46
47861;HTU21D;33620;52.340;5.984;2023-12-28T05:58:28;10.79;82.56
47861;HTU21D;33620;52.340;5.984;2023-12-28T06:00:53;10.81;82.58
47861;HTU21D;33620;52.340;5.984;2023-12-28T06:03:19;10.78;82.52
47861;HTU21D;33620;52.340;5.984;2023-12-28T06:05:45;10.80;82.40
47861;HTU21D;33620;52.340;5.984;2023-12-28T06:08:10;10.81;81.34
47861;HTU21D;33620;52.340;5.984;2023-12-28T06:10:36;10.85;81.73
47861;HTU21D;33620;52.340;5.984;2023-12-28T06:13:01;10.88;81.74
47861;HTU21D;33620;52.340;5.984;2023-12-28T06:15:27;10.92;81.57
47861;HTU21D;33620;52.340;5.984;2023-12-28T06:17:52;10.89;81.94
47861;HTU21D;33620;52.340;5.984;2023-12-28T06:20:17;10.87;81.78
47861;HTU21D;33620;52.340;5.984;2023-12-28T06:22:44;10.89;81.68
47861;HTU21D;33620;52.340;5.984;2023-12-28T06:25:13;10.92;81.27
47861;HTU21D;33620;52.340;5.984;2023-12-28T06:27:38;10.92;81.22
47861;HTU21D;33620;52.340;5.984;2023-12-28T06:30:04;10.92;81.37
47861;HTU21D;33620;52.340;5.984;2023-12-28T06:32:30;10.92;81.36
47861;HTU21D;33620;52.340;5.984;2023-12-28T06:34:55;10.93;81.52
47861;HTU21D;33620;52.340;5.984;2023-12-28T06:37:21;10.92;81.56
47861;HTU21D;33620;52.340;5.984;2023-12-28T06:39:46;10.93;81.18
47861;HTU21D;33620;52.340;5.984;2023-12-28T06:42:12;10.98;81.06
47861;HTU21D;33620;52.340;5.984;2023-12-28T06:44:37;10.99;80.90
47861;HTU21D;33620;52.340;5.984;2023-12-28T06:47:03;11.00;80.78
47861;HTU21D;33620;52.340;5.984;2023-12-28T06:49:28;11.00;80.68
47861;HTU21D;33620;52.340;5.984;2023-12-28T06:51:53;11.01;80.79
47861;HTU21D;33620;52.340;5.984;2023-12-28T06:54:19;11.04;80.97
47861;HTU21D;33620;52.340;5.984;2023-12-28T06:56:44;11.01;80.83
47861;HTU21D;33620;52.340;5.984;2023-12-28T06:59:09;11.03;80.80
47861;HTU21D;33620;52.340;5.984;2023-12-28T07:01:40;11.01;80.51
47861;HTU21D;33620;52.340;5.984;2023-12-28T07:04:06;11.03;80.73
47861;HTU21D;33620;52.340;5.984;2023-12-28T07:06:31;11.01;80.86
47861;HTU21D;33620;52.340;5.984;2023-12-28T07:08:57;11.04;80.94
47861;HTU21D;33620;52.340;5.984;2023-12-28T07:11:22;11.00;80.71
47861;HTU21D;33620;52.340;5.984;2023-12-28T07:13:48;11.03;80.93
47861;HTU21D;33620;52.340;5.984;2023-12-28T07:16:13;11.01;81.12
47861;HTU21D;33620;52.340;5.984;2023-12-28T07:18:39;11.01;80.59
47861;HTU21D;33620;52.340;5.984;2023-12-28T07:21:04;11.04;80.70
47861;HTU21D;33620;52.340;5.984;2023-12-28T07:23:31;11.03;81.04
47861;HTU21D;33620;52.340;5.984;2023-12-28T07:25:56;11.02;81.05
47861;HTU21D;33620;52.340;5.984;2023-12-28T07:28:22;11.03;80.70
47861;HTU21D;33620;52.340;5.984;2023-12-28T07:30:47;11.03;81.01
47861;HTU21D;33620;52.340;5.984;2023-12-28T07:33:13;11.05;80.82
47861;HTU21D;33620;52.340;5.984;2023-12-28T07:35:38;11.05;81.01
47861;HTU21D;33620;52.340;5.984;2023-12-28T07:38:04;11.03;81.00
47861;HTU21D;33620;52.340;5.984;2023-12-28T07:40:29;11.00;80.91
47861;HTU21D;33620;52.340;5.984;2023-12-28T07:42:55;10.98;81.07
47861;HTU21D;33620;52.340;5.984;2023-12-28T07:45:21;10.98;81.07
47861;HTU21D;33620;52.340;5.984;2023-12-28T07:47:49;10.99;81.07
47861;HTU21D;33620;52.340;5.984;2023-12-28T07:50:16;11.01;81.07
47861;HTU21D;33620;52.340;5.984;2023-12-28T07:52:42;10.98;81.08
47861;HTU21D;33620;52.340;5.984;2023-12-28T07:55:08;10.99;81.27
47861;HTU21D;33620;52.340;5.984;2023-12-28T07:57:34;10.98;81.36
47861;HTU21D;33620;52.340;5.984;2023-12-28T08:00:00;10.98;81.33
47861;HTU21D;33620;52.340;5.984;2023-12-28T08:02:25;10.97;81.27
47861;HTU21D;33620;52.340;5.984;2023-12-28T08:04:50;10.99;81.33
47861;HTU21D;33620;52.340;5.984;2023-12-28T08:07:16;10.95;81.07
47861;HTU21D;33620;52.340;5.984;2023-12-28T08:09:41;10.98;81.12
47861;HTU21D;33620;52.340;5.984;2023-12-28T08:12:06;10.98;81.31
47861;HTU21D;33620;52.340;5.984;2023-12-28T08:14:32;10.98;81.42
47861;HTU21D;33620;52.340;5.984;2023-12-28T08:16:57;11.00;81.51
47861;HTU21D;33620;52.340;5.984;2023-12-28T08:19:22;10.99;81.37
47861;HTU21D;33620;52.340;5.984;2023-12-28T08:21:48;10.94;81.42
47861;HTU21D;33620;52.340;5.984;2023-12-28T08:24:13;10.97;81.39
47861;HTU21D;33620;52.340;5.984;2023-12-28T08:26:38;10.99;81.28
47861;HTU21D;33620;52.340;5.984;2023-12-28T08:29:04;10.99;81.36
47861;HTU21D;33620;52.340;5.984;2023-12-28T08:31:29;11.00;81.62
47861;HTU21D;33620;52.340;5.984;2023-12-28T08:33:55;11.01;81.19
47861;HTU21D;33620;52.340;5.984;2023-12-28T08:36:21;11.03;80.98
47861;HTU21D;33620;52.340;5.984;2023-12-28T08:38:46;11.08;81.09
47861;HTU21D;33620;52.340;5.984;2023-12-28T08:41:22;11.07;80.97
47861;HTU21D;33620;52.340;5.984;2023-12-28T08:43:49;11.09;80.64
47861;HTU21D;33620;52.340;5.984;2023-12-28T08:46:15;11.09;80.63
47861;HTU21D;33620;52.340;5.984;2023-12-28T08:48:41;11.11;80.61
47861;HTU21D;33620;52.340;5.984;2023-12-28T08:51:06;11.13;80.69
47861;HTU21D;33620;52.340;5.984;2023-12-28T08:53:32;11.09;80.85
47861;HTU21D;33620;52.340;5.984;2023-12-28T08:55:57;11.10;80.76
47861;HTU21D;33620;52.340;5.984;2023-12-28T08:58:23;11.11;80.66
47861;HTU21D;33620;52.340;5.984;2023-12-28T09:00:48;11.13;81.01
47861;HTU21D;33620;52.340;5.984;2023-12-28T09:03:14;11.13;80.85
47861;HTU21D;33620;52.340;5.984;2023-12-28T09:05:39;11.14;81.04
47861;HTU21D;33620;52.340;5.984;2023-12-28T09:08:05;11.13;80.92
47861;HTU21D;33620;52.340;5.984;2023-12-28T09:10:30;11.14;80.55
47861;HTU21D;33620;52.340;5.984;2023-12-28T09:12:56;11.17;80.68
47861;HTU21D;33620;52.340;5.984;2023-12-28T09:15:21;11.17;80.79
47861;HTU21D;33620;52.340;5.984;2023-12-28T09:17:47;11.19;80.70
47861;HTU21D;33620;52.340;5.984;2023-12-28T09:20:12;11.19;80.85
47861;HTU21D;33620;52.340;5.984;2023-12-28T09:22:38;11.15;80.70
47861;HTU21D;33620;52.340;5.984;2023-12-28T09:25:04;11.18;80.50
47861;HTU21D;33620;52.340;5.984;2023-12-28T09:27:30;11.23;80.52
47861;HTU21D;33620;52.340;5.984;2023-12-28T09:29:55;11.20;80.16
47861;HTU21D;33620;52.340;5.984;2023-12-28T09:32:20;11.25;80.03
47861;HTU21D;33620;52.340;5.984;2023-12-28T09:34:46;11.28;80.40
47861;HTU21D;33620;52.340;5.984;2023-12-28T09:37:11;11.30;80.35
47861;HTU21D;33620;52.340;5.984;2023-12-28T09:39:37;11.30;80.39
47861;HTU21D;33620;52.340;5.984;2023-12-28T09:42:14;11.30;80.44
47861;HTU21D;33620;52.340;5.984;2023-12-28T09:44:42;11.34;80.59
47861;HTU21D;33620;52.340;5.984;2023-12-28T09:47:09;11.32;80.65
47861;HTU21D;33620;52.340;5.984;2023-12-28T09:49:37;11.33;80.39
47861;HTU21D;33620;52.340;5.984;2023-12-28T09:52:04;11.32;80.17
47861;HTU21D;33620;52.340;5.984;2023-12-28T09:54:30;11.36;80.13
47861;HTU21D;33620;52.340;5.984;2023-12-28T09:56:55;11.34;80.11
47861;HTU21D;33620;52.340;5.984;2023-12-28T09:59:22;11.38;80.46
47861;HTU21D;33620;52.340;5.984;2023-12-28T10:01:48;11.32;80.51
47861;HTU21D;33620;52.340;5.984;2023-12-28T10:04:15;11.32;81.50
47861;HTU21D;33620;52.340;5.984;2023-12-28T10:06:41;11.23;82.40
47861;HTU21D;33620;52.340;5.984;2023-12-28T10:09:06;11.22;82.17
47861;HTU21D;33620;52.340;5.984;2023-12-28T10:11:33;11.26;81.11
47861;HTU21D;33620;52.340;5.984;2023-12-28T10:13:58;11.28;80.36
47861;HTU21D;33620;52.340;5.984;2023-12-28T10:16:24;11.32;80.23
47861;HTU21D;33620;52.340;5.984;2023-12-28T10:18:49;11.34;80.30
47861;HTU21D;33620;52.340;5.984;2023-12-28T10:21:15;11.37;79.92
47861;HTU21D;33620;52.340;5.984;2023-12-28T10:23:40;11.41;79.75
47861;HTU21D;33620;52.340;5.984;2023-12-28T10:26:06;11.43;79.53
47861;HTU21D;33620;52.340;5.984;2023-12-28T10:28:32;11.47;79.57
47861;HTU21D;33620;52.340;5.984;2023-12-28T10:31:02;11.46;79.67
47861;HTU21D;33620;52.340;5.984;2023-12-28T10:33:27;11.48;79.11
47861;HTU21D;33620;52.340;5.984;2023-12-28T10:35:58;11.42;79.43
47861;HTU21D;33620;52.340;5.984;2023-12-28T10:38:25;11.43;79.92
47861;HTU21D;33620;52.340;5.984;2023-12-28T10:40:53;11.44;80.18
47861;HTU21D;33620;52.340;5.984;2023-12-28T10:43:19;11.45;79.47
47861;HTU21D;33620;52.340;5.984;2023-12-28T10:45:50;11.42;79.87
47861;HTU21D;33620;52.340;5.984;2023-12-28T10:48:22;11.41;80.55
47861;HTU21D;33620;52.340;5.984;2023-12-28T10:50:50;11.33;81.52
47861;HTU21D;33620;52.340;5.984;2023-12-28T10:53:38;11.29;82.20
47861;HTU21D;33620;52.340;5.984;2023-12-28T11:01:42;11.18;82.17
47861;HTU21D;33620;52.340;5.984;2023-12-28T11:04:23;11.17;82.48
47861;HTU21D;33620;52.340;5.984;2023-12-28T11:06:50;11.15;83.51
47861;HTU21D;33620;52.340;5.984;2023-12-28T11:09:16;11.03;84.76
47861;HTU21D;33620;52.340;5.984;2023-12-28T11:11:43;10.99;84.84
47861;HTU21D;33620;52.340;5.984;2023-12-28T11:14:08;10.90;83.05
47861;HTU21D;33620;52.340;5.984;2023-12-28T11:16:34;11.04;83.13
47861;HTU21D;33620;52.340;5.984;2023-12-28T11:19:02;11.05;81.98
47861;HTU21D;33620;52.340;5.984;2023-12-28T11:21:28;11.11;81.84
47861;HTU21D;33620;52.340;5.984;2023-12-28T11:23:54;11.17;80.34
47861;HTU21D;33620;52.340;5.984;2023-12-28T11:26:21;11.23;79.59
47861;HTU21D;33620;52.340;5.984;2023-12-28T11:28:46;11.31;79.19
47861;HTU21D;33620;52.340;5.984;2023-12-28T11:31:16;11.36;79.97
47861;HTU21D;33620;52.340;5.984;2023-12-28T11:33:51;11.36;79.12
47861;HTU21D;33620;52.340;5.984;2023-12-28T11:36:26;11.40;78.73
47861;HTU21D;33620;52.340;5.984;2023-12-28T11:39:05;11.44;78.62
47861;HTU21D;33620;52.340;5.984;2023-12-28T11:41:32;11.46;78.25
47861;HTU21D;33620;52.340;5.984;2023-12-28T11:44:04;11.47;77.75
47861;HTU21D;33620;52.340;5.984;2023-12-28T11:46:31;11.46;77.17
47861;HTU21D;33620;52.340;5.984;2023-12-28T11:49:04;11.48;77.80
47861;HTU21D;33620;52.340;5.984;2023-12-28T11:51:30;11.44;77.43
47861;HTU21D;33620;52.340;5.984;2023-12-28T11:53:56;11.45;77.37
47861;HTU21D;33620;52.340;5.984;2023-12-28T11:56:21;11.48;76.95
47861;HTU21D;33620;52.340;5.984;2023-12-28T11:58:46;11.52;77.58
47861;HTU21D;33620;52.340;5.984;2023-12-28T12:01:13;11.55;77.63
47861;HTU21D;33620;52.340;5.984;2023-12-28T12:03:38;11.54;77.74
47861;HTU21D;33620;52.340;5.984;2023-12-28T12:06:04;11.52;77.95
47861;HTU21D;33620;52.340;5.984;2023-12-28T12:08:29;11.52;77.28
47861;HTU21D;33620;52.340;5.984;2023-12-28T12:11:07;11.54;77.77
47861;HTU21D;33620;52.340;5.984;2023-12-28T12:13:33;11.53;77.56
47861;HTU21D;33620;52.340;5.984;2023-12-28T12:15:58;11.52;77.58
47861;HTU21D;33620;52.340;5.984;2023-12-28T12:18:24;11.55;77.92
47861;HTU21D;33620;52.340;5.984;2023-12-28T12:20:50;11.60;78.26
47861;HTU21D;33620;52.340;5.984;2023-12-28T12:23:15;11.57;78.01
47861;HTU21D;33620;52.340;5.984;2023-12-28T12:25:41;11.58;77.62
47861;HTU21D;33620;52.340;5.984;2023-12-28T12:28:06;11.59;78.05
47861;HTU21D;33620;52.340;5.984;2023-12-28T12:30:32;11.56;77.08
47861;HTU21D;33620;52.340;5.984;2023-12-28T12:32:57;11.61;78.10
47861;HTU21D;33620;52.340;5.984;2023-12-28T12:35:23;11.61;77.98
47861;HTU21D;33620;52.340;5.984;2023-12-28T12:37:49;11.59;77.44
47861;HTU21D;33620;52.340;5.984;2023-12-28T12:40:16;11.57;77.59
47861;HTU21D;33620;52.340;5.984;2023-12-28T12:42:52;11.61;77.59
47861;HTU21D;33620;52.340;5.984;2023-12-28T12:45:18;11.59;77.75
47861;HTU21D;33620;52.340;5.984;2023-12-28T12:47:44;11.56;77.56
47861;HTU21D;33620;52.340;5.984;2023-12-28T12:50:09;11.59;77.94
47861;HTU21D;33620;52.340;5.984;2023-12-28T12:52:36;11.59;77.97
47861;HTU21D;33620;52.340;5.984;2023-12-28T12:55:01;11.60;77.68
47861;HTU21D;33620;52.340;5.984;2023-12-28T12:57:27;11.59;77.69
47861;HTU21D;33620;52.340;5.984;2023-12-28T12:59:52;11.59;77.36
47861;HTU21D;33620;52.340;5.984;2023-12-28T13:02:18;11.60;77.79
47861;HTU21D;33620;52.340;5.984;2023-12-28T13:04:43;11.57;77.36
47861;HTU21D;33620;52.340;5.984;2023-12-28T13:07:09;11.55;76.89
47861;HTU21D;33620;52.340;5.984;2023-12-28T13:09:34;11.54;76.92
47861;HTU21D;33620;52.340;5.984;2023-12-28T13:12:00;11.59;77.10
47861;HTU21D;33620;52.340;5.984;2023-12-28T13:14:26;11.56;76.96
47861;HTU21D;33620;52.340;5.984;2023-12-28T13:16:52;11.59;77.11
47861;HTU21D;33620;52.340;5.984;2023-12-28T13:19:20;11.56;76.82
47861;HTU21D;33620;52.340;5.984;2023-12-28T13:21:45;11.59;76.69
47861;HTU21D;33620;52.340;5.984;2023-12-28T13:24:11;11.61;76.89
47861;HTU21D;33620;52.340;5.984;2023-12-28T13:26:36;11.58;76.73
47861;HTU21D;33620;52.340;5.984;2023-12-28T13:29:01;11.60;76.82
47861;HTU21D;33620;52.340;5.984;2023-12-28T13:31:27;11.60;76.41
47861;HTU21D;33620;52.340;5.984;2023-12-28T13:33:52;11.60;76.31
47861;HTU21D;33620;52.340;5.984;2023-12-28T13:36:17;11.58;76.45
47861;HTU21D;33620;52.340;5.984;2023-12-28T13:38:44;11.58;76.40
47861;HTU21D;33620;52.340;5.984;2023-12-28T13:41:09;11.59;76.21
47861;HTU21D;33620;52.340;5.984;2023-12-28T13:43:35;11.59;76.39
47861;HTU21D;33620;52.340;5.984;2023-12-28T13:46:01;11.51;76.06
47861;HTU21D;33620;52.340;5.984;2023-12-28T13:48:29;11.55;76.28
47861;HTU21D;33620;52.340;5.984;2023-12-28T13:50:54;11.52;76.02
47861;HTU21D;33620;52.340;5.984;2023-12-28T13:53:20;11.53;75.91
47861;HTU21D;33620;52.340;5.984;2023-12-28T13:55:45;11.54;75.59
47861;HTU21D;33620;52.340;5.984;2023-12-28T13:58:11;11.49;75.95
47861;HTU21D;33620;52.340;5.984;2023-12-28T14:00:36;11.51;76.09
47861;HTU21D;33620;52.340;5.984;2023-12-28T14:03:01;11.53;76.03
47861;HTU21D;33620;52.340;5.984;2023-12-28T14:05:27;11.49;75.25
47861;HTU21D;33620;52.340;5.984;2023-12-28T14:07:53;11.53;75.32
47861;HTU21D;33620;52.340;5.984;2023-12-28T14:10:18;11.52;75.35
47861;HTU21D;33620;52.340;5.984;2023-12-28T14:12:43;11.52;75.50
47861;HTU21D;33620;52.340;5.984;2023-12-28T14:15:09;11.49;75.83
47861;HTU21D;33620;52.340;5.984;2023-12-28T14:17:34;11.52;75.99
47861;HTU21D;33620;52.340;5.984;2023-12-28T14:20:00;11.51;75.94
47861;HTU21D;33620;52.340;5.984;2023-12-28T14:22:25;11.42;75.53
47861;HTU21D;33620;52.340;5.984;2023-12-28T14:24:52;11.46;75.89
47861;HTU21D;33620;52.340;5.984;2023-12-28T14:27:18;11.46;76.28
47861;HTU21D;33620;52.340;5.984;2023-12-28T14:29:45;11.46;76.61
47861;HTU21D;33620;52.340;5.984;2023-12-28T14:32:11;11.42;77.31
47861;HTU21D;33620;52.340;5.984;2023-12-28T14:34:36;11.39;78.21
47861;HTU21D;33620;52.340;5.984;2023-12-28T14:37:02;11.32;78.92
47861;HTU21D;33620;52.340;5.984;2023-12-28T14:39:28;11.23;79.10
47861;HTU21D;33620;52.340;5.984;2023-12-28T14:41:53;11.19;79.38
47861;HTU21D;33620;52.340;5.984;2023-12-28T14:44:19;11.12;79.01
47861;HTU21D;33620;52.340;5.984;2023-12-28T14:46:44;11.18;79.37
47861;HTU21D;33620;52.340;5.984;2023-12-28T14:49:10;11.15;79.51
47861;HTU21D;33620;52.340;5.984;2023-12-28T14:51:35;11.13;79.34
47861;HTU21D;33620;52.340;5.984;2023-12-28T14:54:00;11.12;79.40
47861;HTU21D;33620;52.340;5.984;2023-12-28T14:56:26;11.13;79.53
47861;HTU21D;33620;52.340;5.984;2023-12-28T14:58:51;11.13;79.56
47861;HTU21D;33620;52.340;5.984;2023-12-28T15:01:17;11.14;80.02
47861;HTU21D;33620;52.340;5.984;2023-12-28T15:03:45;11.11;80.59
47861;HTU21D;33620;52.340;5.984;2023-12-28T15:06:11;11.04;81.23
47861;HTU21D;33620;52.340;5.984;2023-12-28T15:08:36;11.03;82.01
47861;HTU21D;33620;52.340;5.984;2023-12-28T15:11:02;10.94;82.97
47861;HTU21D;33620;52.340;5.984;2023-12-28T15:13:28;10.88;83.82
47861;HTU21D;33620;52.340;5.984;2023-12-28T15:15:54;10.82;84.21